Time;durP1;ratioP1;P1;durP2;ratioP2;P2;SDS_P1;SDS_P2;PMS_P1;PMS_P2;Temp;Humidity;BMP_temperature;BMP_pressure;BME280_temperature;BME280_humidity;BME280_pressure;Samples;Min_cycle;Max_cycle;Signal;HPM_P1;HPM_P2
2023/05/19 00:00:02;;;;;;;1.92;0.93;;;;;;;15.13;71.17;99696.13;5089966;28;20056;-83
2023/05/19 00:02:32;;;;;;;2.53;1.63;;;;;;;15.16;70.36;99675.63;5089933;28;20494;-82
2023/05/19 00:05:02;;;;;;;2.33;1.58;;;;;;;15.18;69.75;99672.91;5089577;28;20032;-82
2023/05/19 00:07:31;;;;;;;8.23;2.35;;;;;;;15.27;70.33;99695.66;5089978;28;20417;-82
2023/05/19 00:09:57;;;;;;;3.38;1.13;;;;;;;15.15;69.92;99694.28;5090314;28;20111;-83
2023/05/19 00:12:22;;;;;;;2.15;1.20;;;;;;;15.27;69.35;99700.97;5089682;28;20217;-82
2023/05/19 00:14:48;;;;;;;;;;;;;;;15.47;69.33;99690.50;5090173;28;20028;-82
2023/05/19 00:17:15;;;;;;;1.90;1.20;;;;;;;15.46;69.21;99691.44;5090171;28;19908;-82
2023/05/19 00:19:43;;;;;;;1.15;1.00;;;;;;;15.28;68.87;99673.50;5089942;28;20024;-82
2023/05/19 00:22:09;;;;;;;4.43;1.40;;;;;;;15.32;69.11;99683.06;5089839;28;20549;-82
2023/05/19 00:24:35;;;;;;;1.75;0.98;;;;;;;15.27;68.54;99647.81;5089642;28;20189;-83
2023/05/19 00:27:00;;;;;;;1.95;1.05;;;;;;;15.16;68.53;99659.69;5090011;28;20028;-82
2023/05/19 00:29:26;;;;;;;1.45;1.20;;;;;;;15.15;69.40;99657.97;5089750;28;20406;-82
2023/05/19 00:31:51;;;;;;;1.80;1.05;;;;;;;15.13;68.96;99686.34;5089611;28;20020;-84
2023/05/19 00:34:16;;;;;;;1.80;1.40;;;;;;;15.15;68.77;99644.69;5090116;28;20097;-86
2023/05/19 00:36:42;;;;;;;2.70;1.80;;;;;;;15.14;68.87;99660.69;5089158;28;20024;-82
2023/05/19 00:39:07;;;;;;;2.53;1.77;;;;;;;15.44;68.63;99666.69;5089381;28;20028;-83
2023/05/19 00:41:33;;;;;;;8.57;2.45;;;;;;;15.19;68.68;99662.22;5089578;28;20406;-84
2023/05/19 00:43:58;;;;;;;1.52;1.30;;;;;;;15.32;68.11;99657.38;5089918;28;20047;-83
2023/05/19 00:46:24;;;;;;;2.15;1.20;;;;;;;15.15;68.77;99654.44;5089102;28;20402;-84
2023/05/19 00:48:49;;;;;;;3.38;1.30;;;;;;;15.36;68.28;99674.09;5089593;28;20500;-83
2023/05/19 00:51:15;;;;;;;1.45;1.05;;;;;;;15.13;68.47;99648.31;5088866;28;20032;-83
2023/05/19 00:53:42;;;;;;;4.97;1.38;;;;;;;15.18;68.71;99672.91;5089627;28;20097;-83
2023/05/19 00:56:08;;;;;;;5.78;1.92;;;;;;;15.33;68.04;99675.03;5089644;28;20028;-83
2023/05/19 00:58:35;;;;;;;2.30;1.42;;;;;;;15.07;68.34;99643.19;5089693;28;20046;-84
2023/05/19 01:01:06;;;;;;;1.42;1.30;;;;;;;15.00;68.41;99629.28;5089559;28;20051;-83
2023/05/19 01:03:35;;;;;;;2.22;1.33;;;;;;;15.32;68.74;99683.06;5071606;28;20511;-83
2023/05/19 01:06:06;;;;;;;8.02;1.45;;;;;;;15.01;68.15;99657.56;5071318;28;20565;-83
2023/05/19 01:08:36;;;;;;;4.55;1.38;;;;;;;14.99;67.84;99636.34;5089831;28;20081;-84
2023/05/19 01:11:02;;;;;;;1.90;1.17;;;;;;;15.20;67.87;99645.38;5089298;28;20032;-82
2023/05/19 01:13:28;;;;;;;1.63;1.30;;;;;;;15.03;67.69;99647.75;5089009;28;20032;-82
2023/05/19 01:16:08;;;;;;;2.83;1.77;;;;;;;15.27;67.83;99661.13;5092707;28;20032;-83
2023/05/19 01:19:09;;;;;;;1.45;1.00;;;;;;;15.22;67.84;99654.16;5093170;28;20040;-83
2023/05/19 01:21:53;;;;;;;7.95;3.38;;;;;;;15.25;67.70;99674.47;5092506;28;20028;-82
2023/05/19 01:24:44;;;;;;;1.90;1.50;;;;;;;15.21;68.25;99664.84;5093203;28;20115;-82
2023/05/19 01:27:40;;;;;;;4.65;1.00;;;;;;;15.23;67.90;99663.03;5092926;28;20054;-83
2023/05/19 01:30:22;;;;;;;3.47;2.20;;;;;;;15.26;67.90;99667.34;5091367;28;20111;-83
2023/05/19 01:32:52;;;;;;;1.60;1.20;;;;;;;15.16;67.18;99633.13;5093278;28;20032;-83
2023/05/19 01:35:18;;;;;;;2.00;1.40;;;;;;;15.15;67.76;99633.16;5093119;28;20028;-83
2023/05/19 01:37:45;;;;;;;2.28;1.55;;;;;;;15.25;67.09;99661.16;5093001;28;20142;-83
2023/05/19 01:40:11;;;;;;;1.98;1.23;;;;;;;15.01;66.82;99645.16;5092366;28;20417;-82
2023/05/19 01:42:39;;;;;;;1.52;1.15;;;;;;;15.25;66.52;99687.75;5091541;28;20418;-83
2023/05/19 01:45:09;;;;;;;0.98;0.85;;;;;;;15.09;66.41;99641.34;5092236;28;20026;-83
2023/05/19 01:47:39;;;;;;;3.08;2.15;;;;;;;15.42;66.15;99665.88;5092688;28;20053;-83
2023/05/19 01:50:05;;;;;;;1.67;0.90;;;;;;;15.29;66.28;99656.59;5092168;28;20413;-83
2023/05/19 01:52:31;;;;;;;3.85;2.05;;;;;;;15.13;66.74;99635.03;5092165;28;20028;-83
2023/05/19 01:54:56;;;;;;;1.65;1.17;;;;;;;15.15;66.54;99646.47;5092056;28;20043;-83
2023/05/19 01:57:43;;;;;;;2.90;1.83;;;;;;;15.36;66.41;99676.75;5092245;28;20032;-83
2023/05/19 02:00:20;;;;;;;3.47;1.88;;;;;;;15.39;66.45;99677.50;5091562;28;20459;-82
2023/05/19 02:02:58;;;;;;;1.80;1.20;;;;;;;15.43;66.00;99686.25;5092003;28;20064;-83
2023/05/19 02:05:37;;;;;;;1.33;0.90;;;;;;;15.17;66.40;99682.69;5092165;28;20024;-83
2023/05/19 02:08:16;;;;;;;2.47;2.00;;;;;;;15.16;66.95;99680.94;5081401;28;20040;-83
2023/05/19 02:10:47;;;;;;;2.30;1.60;;;;;;;15.43;66.83;99677.38;5092392;28;20036;-83
2023/05/19 02:13:17;;;;;;;3.10;1.90;;;;;;;15.27;67.25;99683.22;5091883;28;20482;-83
2023/05/19 02:15:44;;;;;;;1.65;1.17;;;;;;;15.20;67.36;99701.19;5073419;28;20047;-82
2023/05/19 02:18:10;;;;;;;2.05;1.75;;;;;;;15.18;67.30;99679.13;5091280;28;20043;-84
2023/05/19 02:20:38;;;;;;;1.92;1.42;;;;;;;15.22;66.77;99691.34;5091634;28;20800;-82
2023/05/19 02:23:04;;;;;;;3.58;2.03;;;;;;;15.00;67.33;99653.19;5091671;28;20507;-85
2023/05/19 02:25:29;;;;;;;2.83;2.13;;;;;;;15.20;67.12;99652.50;5091921;28;20035;-83
2023/05/19 02:27:57;;;;;;;5.03;2.05;;;;;;;15.21;66.51;99688.75;5091966;28;20497;-83
2023/05/19 02:30:22;;;;;;;2.70;1.55;;;;;;;15.28;66.75;99697.41;5091593;28;20028;-83
2023/05/19 02:32:48;;;;;;;1.65;1.27;;;;;;;15.15;66.62;99673.91;5072601;28;20040;-83
2023/05/19 02:35:14;;;;;;;4.53;1.33;;;;;;;15.01;67.44;99670.84;5091886;28;20127;-83
2023/05/19 02:37:39;;;;;;;2.30;1.33;;;;;;;15.17;66.45;99677.38;5091167;28;20028;-83
2023/05/19 02:40:06;;;;;;;4.68;1.85;;;;;;;15.31;66.70;99698.16;5072400;28;20109;-82
2023/05/19 02:42:31;;;;;;;2.90;1.63;;;;;;;15.26;66.96;99699.22;5091155;28;20044;-83
2023/05/19 02:44:56;;;;;;;1.77;1.30;;;;;;;15.04;66.64;99652.13;5091041;28;20460;-85
2023/05/19 02:47:22;;;;;;;2.15;1.30;;;;;;;15.06;66.40;99678.66;5091446;28;20482;-82
2023/05/19 02:49:47;;;;;;;1.98;1.63;;;;;;;15.32;66.38;99678.66;5091405;28;20036;-82
2023/05/19 02:52:13;;;;;;;1.95;1.45;;;;;;;15.26;65.97;99699.22;5090267;28;20407;-83
2023/05/19 02:54:38;;;;;;;2.30;1.20;;;;;;;14.90;66.18;99652.59;5090971;28;20056;-82
2023/05/19 02:57:04;;;;;;;1.60;1.10;;;;;;;15.33;66.89;99701.63;5090614;28;20085;-82
2023/05/19 02:59:30;;;;;;;2.78;1.83;;;;;;;15.03;66.40;99674.31;5090774;28;20405;-83
2023/05/19 03:02:00;;;;;;;1.10;0.90;;;;;;;15.13;66.60;99707.63;5090697;28;20032;-83
2023/05/19 03:04:26;;;;;;;1.50;0.95;;;;;;;15.21;66.52;99696.72;5091143;28;20031;-84
2023/05/19 03:06:52;;;;;;;3.03;2.15;;;;;;;15.13;66.44;99674.88;5090871;28;20027;-83
2023/05/19 03:09:18;;;;;;;2.47;1.55;;;;;;;15.00;67.30;99671.78;5090776;28;20331;-83
2023/05/19 03:11:44;;;;;;;1.40;1.00;;;;;;;15.14;66.75;99701.38;5090998;28;20486;-83
2023/05/19 03:14:09;;;;;;;1.58;1.27;;;;;;;15.08;67.20;99712.22;5090506;28;20085;-82
2023/05/19 03:16:35;;;;;;;2.63;1.52;;;;;;;15.10;67.07;99677.63;5089705;28;20489;-82
2023/05/19 03:19:00;;;;;;;8.30;1.25;;;;;;;14.93;67.67;99688.81;5089515;28;20377;-82
2023/05/19 03:21:26;;;;;;;3.17;1.55;;;;;;;15.18;67.19;99710.13;5087092;28;20070;-83
2023/05/19 03:23:53;;;;;;;2.30;1.88;;;;;;;15.05;66.89;99664.50;5088956;28;20028;-83
2023/05/19 03:26:18;;;;;;;2.83;1.98;;;;;;;15.13;66.70;99701.44;5089944;28;20480;-84
2023/05/19 03:28:44;;;;;;;3.17;1.95;;;;;;;15.17;67.23;99703.09;5089405;28;20042;-84
2023/05/19 03:31:09;;;;;;;2.33;1.45;;;;;;;15.24;67.03;99723.19;5089976;28;20020;-84
2023/05/19 03:33:35;;;;;;;3.35;2.53;;;;;;;15.08;66.76;99706.06;5089592;28;20026;-84
2023/05/19 03:36:00;;;;;;;4.38;1.70;;;;;;;14.89;68.22;99679.22;5090120;28;20024;-82
2023/05/19 03:38:26;;;;;;;2.15;1.83;;;;;;;15.10;66.96;99698.88;5088648;28;20028;-84
2023/05/19 03:40:52;;;;;;;2.58;1.45;;;;;;;15.17;67.21;99719.88;5090083;28;20066;-85
2023/05/19 03:43:18;;;;;;;2.55;1.65;;;;;;;15.18;68.21;99699.50;5089827;28;20020;-84
2023/05/19 03:45:43;;;;;;;1.80;1.30;;;;;;;15.15;67.56;99699.59;5089036;28;20401;-84
2023/05/19 03:48:09;;;;;;;3.33;1.55;;;;;;;15.09;67.96;99682.09;5089864;28;20044;-86
2023/05/19 03:50:36;;;;;;;2.17;1.80;;;;;;;15.19;67.09;99698.56;5090232;28;20455;-87
2023/05/19 03:53:02;;;;;;;3.53;1.98;;;;;;;15.18;67.66;99711.00;5089897;28;20517;-84
2023/05/19 03:55:30;;;;;;;1.77;1.13;;;;;;;15.46;67.43;99752.59;5088968;28;20028;-84
2023/05/19 03:57:56;;;;;;;1.95;1.38;;;;;;;15.11;67.91;99682.03;5088519;28;20059;-83
2023/05/19 04:00:21;;;;;;;3.17;1.88;;;;;;;15.29;67.59;99710.63;5088931;28;20063;-83
2023/05/19 04:02:47;;;;;;;4.05;2.25;;;;;;;15.62;66.80;99725.47;5088584;28;20039;-84
2023/05/19 04:05:13;;;;;;;4.18;2.15;;;;;;;15.40;67.41;99702.31;5086951;28;20031;-85
2023/05/19 04:07:38;;;;;;;1.60;1.40;;;;;;;15.49;66.85;99704.63;5085181;28;20047;-85
2023/05/19 04:10:04;;;;;;;3.28;1.67;;;;;;;15.86;66.60;99732.56;5087855;28;20032;-84
2023/05/19 04:12:30;;;;;;;6.18;1.33;;;;;;;15.75;67.28;99732.97;5089415;28;20055;-83
2023/05/19 04:14:56;;;;;;;5.40;2.38;;;;;;;15.79;66.59;99722.25;5090099;28;20474;-84
2023/05/19 04:17:25;;;;;;;8.23;2.75;;;;;;;15.79;66.92;99724.91;5089745;28;20032;-88
2023/05/19 04:19:50;;;;;;;6.90;2.60;;;;;;;16.02;66.79;99756.84;5090165;28;20025;-85
2023/05/19 04:22:16;;;;;;;5.38;2.58;;;;;;;15.93;66.20;99746.53;5088595;28;20042;-85
2023/05/19 04:24:41;;;;;;;4.75;2.75;;;;;;;16.04;66.81;99739.03;5089500;28;20028;-84
2023/05/19 04:27:10;;;;;;;1.85;1.38;;;;;;;16.23;66.68;99765.81;5089059;28;20390;-84
2023/05/19 04:29:36;;;;;;;2.25;1.80;;;;;;;16.32;66.67;99732.69;5086685;28;20052;-84
2023/05/19 04:32:06;;;;;;;3.47;2.30;;;;;;;16.41;65.73;99731.47;5070417;28;20074;-85
2023/05/19 04:34:33;;;;;;;1.75;1.48;;;;;;;16.63;66.83;99729.69;5089130;28;20028;-86
2023/05/19 04:37:00;;;;;;;2.40;1.58;;;;;;;16.96;63.89;99728.44;5089552;28;20111;-83
2023/05/19 04:39:25;;;;;;;2.88;2.20;;;;;;;17.07;63.78;99739.53;5081002;28;20039;-84
2023/05/19 04:41:52;;;;;;;2.40;1.45;;;;;;;16.98;63.57;99751.44;5075791;28;20036;-84
2023/05/19 04:44:18;;;;;;;11.43;1.50;;;;;;;17.10;62.76;99749.19;5078102;28;20120;-84
2023/05/19 04:46:44;;;;;;;5.43;2.42;;;;;;;17.16;64.50;99738.25;5077731;28;21597;-84
2023/05/19 04:49:11;;;;;;;1.65;1.40;;;;;;;17.27;63.70;99737.81;5079889;28;20061;-85
2023/05/19 04:51:40;;;;;;;6.05;2.10;;;;;;;17.42;62.29;99737.16;5083794;28;20032;-84
2023/05/19 04:54:06;;;;;;;3.33;2.13;;;;;;;17.36;63.01;99732.97;5079166;28;20036;-85
2023/05/19 04:56:32;;;;;;;3.75;2.47;;;;;;;17.40;62.44;99733.72;5079540;28;20032;-87
2023/05/19 04:58:57;;;;;;;1.63;1.27;;;;;;;17.42;62.90;99730.97;5082109;28;20036;-86
2023/05/19 05:01:24;;;;;;;5.47;1.90;;;;;;;17.31;62.07;99734.09;5077092;28;20194;-87
2023/05/19 05:03:53;;;;;;;4.22;2.20;;;;;;;17.60;61.69;99745.34;5079074;28;20502;-86
2023/05/19 05:06:20;;;;;;;3.53;2.55;;;;;;;17.79;62.40;99764.06;5078443;28;20085;-85
2023/05/19 05:08:46;;;;;;;3.95;1.90;;;;;;;17.93;63.64;99769.69;5077667;28;20500;-83
2023/05/19 05:11:12;;;;;;;3.15;1.70;;;;;;;17.88;62.14;99753.88;5079769;28;20063;-83
2023/05/19 05:13:37;;;;;;;4.15;2.33;;;;;;;18.01;61.44;99770.22;5076897;28;20020;-84
2023/05/19 05:16:05;;;;;;;2.53;1.45;;;;;;;18.07;60.72;99758.41;5079366;28;20036;-89
2023/05/19 05:18:32;;;;;;;2.45;1.65;;;;;;;18.09;60.60;99743.19;5078783;28;20036;-84
2023/05/19 05:20:58;;;;;;;6.32;2.15;;;;;;;18.17;60.75;99777.56;5086214;28;20149;-87
2023/05/19 05:23:23;;;;;;;6.93;2.90;;;;;;;18.38;61.35;99760.56;5084570;28;20095;-87
2023/05/19 05:25:49;;;;;;;2.50;1.88;;;;;;;18.22;60.35;99765.72;5080181;28;20028;-85
2023/05/19 05:28:15;;;;;;;3.90;2.40;;;;;;;18.39;60.29;99783.63;5073010;28;20036;-86
2023/05/19 05:30:40;;;;;;;5.53;2.17;;;;;;;18.56;60.33;99801.56;5089972;28;20412;-85
2023/05/19 05:33:08;;;;;;;4.82;3.05;;;;;;;18.62;59.83;99792.41;5086288;28;20098;-85
2023/05/19 05:35:33;;;;;;;3.33;1.92;;;;;;;18.40;59.38;99764.00;5083182;28;20040;-85
2023/05/19 05:38:00;;;;;;;3.95;2.53;;;;;;;18.61;60.47;99786.19;5091675;28;20073;-85
2023/05/19 05:40:26;;;;;;;5.68;2.50;;;;;;;18.56;59.74;99752.63;5091074;28;20457;-87
2023/05/19 05:42:54;;;;;;;3.15;1.77;;;;;;;18.66;57.71;99798.44;5085634;28;20031;-84
2023/05/19 05:45:21;;;;;;;2.15;1.55;;;;;;;18.81;58.24;99788.84;5087693;28;20032;-84
2023/05/19 05:47:46;;;;;;;6.43;2.25;;;;;;;19.04;58.94;99815.38;5091696;28;20571;-86
2023/05/19 05:50:12;;;;;;;4.93;2.38;;;;;;;19.18;58.40;99793.31;5092146;28;20123;-84
2023/05/19 05:52:40;;;;;;;4.57;1.95;;;;;;;19.16;57.67;99770.28;5091884;28;20080;-83
2023/05/19 05:55:06;;;;;;;6.80;2.53;;;;;;;19.10;58.48;99795.50;5087685;28;20047;-83
2023/05/19 05:57:34;;;;;;;2.78;2.13;;;;;;;19.21;58.51;99819.03;5086836;28;20070;-82
2023/05/19 05:59:59;;;;;;;6.05;2.13;;;;;;;19.06;56.18;99818.88;5082044;28;20502;-83
2023/05/19 06:02:26;;;;;;;3.10;2.65;;;;;;;18.87;57.27;99783.25;5081968;28;20172;-83
2023/05/19 06:04:53;;;;;;;6.53;2.58;;;;;;;19.21;57.13;99770.91;5082195;28;20024;-81
2023/05/19 06:07:18;;;;;;;3.65;2.58;;;;;;;19.76;55.43;99804.72;5086133;28;20027;-82
2023/05/19 06:09:44;;;;;;;3.90;2.50;;;;;;;20.26;55.65;99814.63;5082075;28;20028;-82
2023/05/19 06:12:10;;;;;;;20.83;2.92;;;;;;;20.35;54.08;99799.88;5084367;28;20458;-82
2023/05/19 06:14:35;;;;;;;6.63;3.00;;;;;;;19.98;54.70;99842.00;5071514;28;20478;-84
2023/05/19 06:17:01;;;;;;;4.53;2.20;;;;;;;19.75;55.98;99829.75;5080541;28;20032;-82
2023/05/19 06:19:26;;;;;;;8.25;2.80;;;;;;;19.34;56.64;99828.22;5074076;28;20025;-81
2023/05/19 06:21:52;;;;;;;7.28;2.53;;;;;;;19.40;56.87;99824.34;5076613;28;20112;-83
2023/05/19 06:24:18;;;;;;;4.75;2.22;;;;;;;19.97;55.44;99817.03;5091664;28;20031;-82
2023/05/19 06:26:43;;;;;;;4.75;3.58;;;;;;;20.18;56.17;99796.28;5091380;28;20025;-82
2023/05/19 06:29:08;;;;;;;4.93;2.53;;;;;;;20.84;56.04;99831.22;5086636;28;20032;-82
2023/05/19 06:31:34;;;;;;;2.65;1.85;;;;;;;20.83;54.66;99846.41;5083534;28;20020;-82
2023/05/19 06:34:00;;;;;;;3.15;2.13;;;;;;;20.64;54.74;99826.91;5090770;28;20478;-83
2023/05/19 06:36:25;;;;;;;3.53;2.17;;;;;;;20.54;53.38;99854.22;5074941;28;20025;-82
2023/05/19 06:38:51;;;;;;;4.03;2.38;;;;;;;20.28;55.21;99849.34;5077940;28;20406;-83
2023/05/19 06:41:16;;;;;;;3.05;2.22;;;;;;;20.17;55.64;99813.31;5079618;28;20135;-84
2023/05/19 06:43:42;;;;;;;3.20;2.13;;;;;;;20.56;54.57;99822.84;5078071;28;20032;-83
2023/05/19 06:46:07;;;;;;;3.00;1.80;;;;;;;20.32;55.24;99816.13;5078924;28;20032;-84
2023/05/19 06:48:33;;;;;;;6.07;3.17;;;;;;;20.12;55.97;99836.78;5073183;28;20030;-84
2023/05/19 06:50:58;;;;;;;4.18;2.10;;;;;;;20.85;54.32;99844.53;5090631;28;20020;-85
2023/05/19 06:53:24;;;;;;;4.85;3.25;;;;;;;20.86;53.85;99808.72;5075501;28;20029;-83
2023/05/19 06:55:50;;;;;;;5.95;2.83;;;;;;;20.54;54.72;99805.09;5072415;28;20052;-84
2023/05/19 06:58:15;;;;;;;3.17;2.03;;;;;;;21.15;55.14;99826.78;5077966;28;20039;-83
2023/05/19 07:00:42;;;;;;;4.35;2.85;;;;;;;21.31;53.81;99805.34;5082176;28;20139;-83
2023/05/19 07:03:07;;;;;;;3.28;2.38;;;;;;;21.52;52.15;99812.16;5074236;28;20040;-83
2023/05/19 07:05:33;;;;;;;5.32;2.83;;;;;;;21.53;53.15;99784.34;5080496;28;20030;-82
2023/05/19 07:07:58;;;;;;;4.70;3.17;;;;;;;21.68;53.75;99811.25;5090513;28;20028;-83
2023/05/19 07:10:24;;;;;;;6.15;2.47;;;;;;;21.84;54.34;99808.50;5090463;28;20020;-83
2023/05/19 07:12:49;;;;;;;3.50;2.15;;;;;;;22.09;52.93;99818.63;5086690;28;20028;-83
2023/05/19 07:15:15;;;;;;;5.93;2.83;;;;;;;22.30;52.38;99825.41;5080029;28;20441;-84
2023/05/19 07:17:40;;;;;;;8.07;4.13;;;;;;;22.40;51.34;99817.66;5083196;28;20090;-84
2023/05/19 07:20:08;;;;;;;8.65;3.33;;;;;;;22.12;51.41;99816.63;5078058;28;20395;-82
2023/05/19 07:22:35;;;;;;;4.88;2.78;;;;;;;21.80;51.60;99810.53;5080315;28;20039;-83
2023/05/19 07:25:00;;;;;;;5.22;2.50;;;;;;;21.96;52.18;99831.94;5080326;28;20502;-84
2023/05/19 07:27:26;;;;;;;6.82;3.80;;;;;;;22.35;54.28;99846.63;5087949;28;20024;-83
2023/05/19 07:29:52;;;;;;;7.47;3.17;;;;;;;22.25;49.57;99794.41;5083541;28;20028;-84
2023/05/19 07:32:17;;;;;;;9.40;3.85;;;;;;;22.24;51.83;99815.00;5076209;28;20024;-83
2023/05/19 07:34:43;;;;;;;5.63;3.30;;;;;;;22.13;51.57;99823.72;5083957;28;20028;-83
2023/05/19 07:37:08;;;;;;;4.80;3.60;;;;;;;22.56;51.43;99816.69;5076407;28;20029;-83
2023/05/19 07:39:34;;;;;;;4.65;2.83;;;;;;;22.66;52.93;99826.78;5081282;28;20486;-84
2023/05/19 07:42:00;;;;;;;4.35;2.97;;;;;;;22.24;50.24;99844.56;5080533;28;20036;-83
2023/05/19 07:44:26;;;;;;;4.43;2.85;;;;;;;22.26;52.90;99836.41;5081506;28;20032;-83
2023/05/19 07:46:52;;;;;;;5.53;2.83;;;;;;;21.62;51.62;99812.47;5073540;28;20387;-83
2023/05/19 07:49:18;;;;;;;5.20;3.42;;;;;;;22.08;52.21;99860.75;5072554;28;20032;-83
2023/05/19 07:51:43;;;;;;;3.28;2.30;;;;;;;21.66;51.35;99851.63;5078164;28;20036;-82
2023/05/19 07:54:09;;;;;;;4.88;2.58;;;;;;;21.86;51.94;99846.88;5073098;28;20520;-82
2023/05/19 07:56:35;;;;;;;7.40;3.03;;;;;;;22.24;51.67;99847.25;5079449;28;20032;-83
2023/05/19 07:59:00;;;;;;;6.90;2.85;;;;;;;22.62;52.12;99841.38;5081461;28;20032;-83
2023/05/19 08:01:25;;;;;;;5.88;3.22;;;;;;;22.48;50.64;99825.25;5074631;28;20573;-83
2023/05/19 08:03:51;;;;;;;8.35;3.78;;;;;;;22.81;49.82;99834.81;5079512;28;20109;-83
2023/05/19 08:06:16;;;;;;;10.50;4.13;;;;;;;22.87;51.30;99808.38;5083308;28;20039;-84
2023/05/19 08:08:42;;;;;;;8.48;3.40;;;;;;;23.37;50.02;99843.78;5086124;28;20552;-85
2023/05/19 08:11:07;;;;;;;8.13;2.67;;;;;;;22.99;50.03;99825.56;5074891;28;20482;-86
2023/05/19 08:13:33;;;;;;;4.82;2.65;;;;;;;22.49;49.80;99830.53;5082526;28;20052;-85
2023/05/19 08:15:59;;;;;;;8.43;3.30;;;;;;;22.80;53.82;99862.66;5078705;28;20032;-85
2023/05/19 08:18:25;;;;;;;6.70;3.50;;;;;;;23.32;50.05;99856.66;5070791;28;20036;-85
2023/05/19 08:20:51;;;;;;;6.68;3.92;;;;;;;22.87;49.93;99829.91;5078334;28;20035;-86
2023/05/19 08:23:16;;;;;;;5.03;2.97;;;;;;;23.47;48.65;99835.09;5081925;28;20036;-86
2023/05/19 08:25:42;;;;;;;6.25;3.33;;;;;;;23.74;49.30;99861.97;5094050;28;20060;-85
2023/05/19 08:28:08;;;;;;;8.13;5.35;;;;;;;23.84;47.77;99849.66;5094621;28;20034;-85
2023/05/19 08:30:33;;;;;;;8.88;4.53;;;;;;;23.77;47.20;99829.44;5094478;28;20424;-85
2023/05/19 08:32:59;;;;;;;4.90;3.35;;;;;;;24.28;49.22;99844.88;5093502;28;20038;-85
2023/05/19 08:35:24;;;;;;;4.95;3.42;;;;;;;24.29;46.78;99814.25;5093904;28;20070;-86
2023/05/19 08:37:50;;;;;;;6.50;3.40;;;;;;;24.45;47.55;99839.16;5093866;28;20028;-87
2023/05/19 08:40:17;;;;;;;5.22;3.10;;;;;;;24.33;45.29;99804.09;5075171;28;20540;-86
2023/05/19 08:42:46;;;;;;;6.22;3.35;;;;;;;24.61;44.39;99846.22;5093998;28;20092;-85
2023/05/19 08:45:12;;;;;;;5.88;3.53;;;;;;;24.70;49.16;99823.97;5093682;28;20540;-85
2023/05/19 08:47:39;;;;;;;4.28;2.78;;;;;;;24.52;43.06;99842.28;5093417;28;20123;-85
2023/05/19 08:50:09;;;;;;;5.15;3.38;;;;;;;24.40;50.12;99822.44;5093293;28;20072;-84
2023/05/19 08:52:51;;;;;;;7.15;4.13;;;;;;;24.86;43.48;99852.53;5093210;28;20107;-84
2023/05/19 08:55:28;;;;;;;7.32;4.35;;;;;;;24.68;46.90;99847.47;5092593;28;20039;-86
2023/05/19 08:57:55;;;;;;;4.82;3.33;;;;;;;24.81;44.32;99828.59;5092861;28;20559;-86
2023/05/19 09:00:21;;;;;;;5.57;3.78;;;;;;;24.99;44.44;99802.97;5092434;28;20056;-85
2023/05/19 09:02:49;;;;;;;6.15;3.20;;;;;;;25.65;44.81;99843.09;5087067;28;20100;-85
2023/05/19 09:05:16;;;;;;;8.73;3.08;;;;;;;25.59;43.19;99826.50;5072007;28;20040;-86
2023/05/19 09:07:43;;;;;;;5.53;3.33;;;;;;;25.32;41.32;99833.88;5072593;28;20028;-84
2023/05/19 09:10:12;;;;;;;5.72;2.95;;;;;;;25.68;44.31;99844.72;5073021;28;20043;-84
2023/05/19 09:12:38;;;;;;;5.03;3.40;;;;;;;25.83;46.37;99821.94;5081307;28;20028;-84
2023/05/19 09:15:06;;;;;;;6.63;3.58;;;;;;;25.61;42.67;99835.34;5075909;28;20036;-82
2023/05/19 09:17:32;;;;;;;12.13;4.05;;;;;;;25.80;40.79;99830.28;5063901;28;20070;-83
2023/05/19 09:20:10;;;;;;;5.28;3.70;;;;;;;25.97;41.26;99817.31;5091999;28;20028;-83
2023/05/19 09:22:49;;;;;;;5.88;3.67;;;;;;;26.62;44.38;99816.69;5092333;28;20024;-85
2023/05/19 09:25:21;;;;;;;10.30;4.38;;;;;;;26.45;44.11;99839.66;5091683;28;20032;-85
2023/05/19 09:27:48;;;;;;;7.72;4.05;;;;;;;26.72;44.92;99843.03;5092060;28;20028;-84
2023/05/19 09:30:15;;;;;;;8.27;4.95;;;;;;;25.60;42.14;99801.22;5090816;28;20035;-86
2023/05/19 09:32:42;;;;;;;5.95;3.38;;;;;;;26.06;41.09;99806.69;5071178;28;20484;-87
2023/05/19 09:35:08;;;;;;;6.47;3.30;;;;;;;26.77;41.01;99841.69;5078410;28;20040;-86
2023/05/19 09:37:33;;;;;;;7.07;4.10;;;;;;;27.23;39.61;99809.97;5076984;28;20502;-84
2023/05/19 09:39:59;;;;;;;7.43;3.83;;;;;;;27.00;38.38;99808.31;5090847;28;20497;-85
2023/05/19 09:42:25;;;;;;;12.85;4.60;;;;;;;27.39;41.56;99841.22;5090811;28;20031;-84
2023/05/19 09:45:04;;;;;;;7.32;4.55;;;;;;;27.26;38.63;99803.47;5089503;28;20047;-84
2023/05/19 09:47:38;;;;;;;5.47;3.70;;;;;;;27.40;41.16;99835.69;5072790;28;20549;-84
2023/05/19 09:50:05;;;;;;;5.25;3.50;;;;;;;27.33;40.22;99821.81;5092057;28;20145;-82
2023/05/19 09:52:34;;;;;;;8.93;4.20;;;;;;;27.09;40.68;99807.56;5091273;28;20064;-82
2023/05/19 09:55:01;;;;;;;7.55;4.32;;;;;;;26.79;39.79;99806.38;5091616;28;20897;-82
2023/05/19 09:57:34;;;;;;;7.90;4.10;;;;;;;26.62;38.21;99803.16;5086584;28;20106;-85
2023/05/19 10:00:07;;;;;;;6.18;4.32;;;;;;;27.47;41.06;99819.81;5065529;28;20052;-84
2023/05/19 10:02:33;;;;;;;9.43;4.32;;;;;;;27.52;38.95;99783.19;5085191;28;20039;-85
2023/05/19 10:05:00;;;;;;;7.85;4.00;;;;;;;27.32;36.38;99792.16;5052293;28;20039;-84
2023/05/19 10:07:26;;;;;;;7.65;3.83;;;;;;;26.54;38.37;99772.28;5072196;28;20026;-84
2023/05/19 10:09:53;;;;;;;7.85;4.50;;;;;;;26.39;37.59;99820.38;5080586;28;20036;-83
2023/05/19 10:12:19;;;;;;;7.47;4.10;;;;;;;26.18;36.12;99791.34;5074661;28;20135;-82
2023/05/19 10:14:47;;;;;;;10.82;4.95;;;;;;;26.85;38.84;99813.13;5071265;28;20481;-83
2023/05/19 10:17:13;;;;;;;7.70;4.75;;;;;;;26.45;36.30;99771.19;5079511;28;20032;-86
2023/05/19 10:19:40;;;;;;;10.30;4.18;;;;;;;26.37;40.97;99776.34;5069023;28;20032;-84
2023/05/19 10:22:05;;;;;;;7.72;4.38;;;;;;;26.41;40.36;99767.00;5086920;28;20040;-84
2023/05/19 10:24:31;;;;;;;6.10;4.00;;;;;;;26.22;38.10;99795.50;5085625;28;20078;-84
2023/05/19 10:27:08;;;;;;;7.95;4.43;;;;;;;25.62;38.14;99781.22;5086469;28;20016;-85
2023/05/19 10:29:38;;;;;;;7.13;4.07;;;;;;;25.41;38.31;99777.44;5089618;28;20027;-82
2023/05/19 10:32:10;;;;;;;9.57;4.47;;;;;;;25.34;37.90;99767.09;5076857;28;20102;-83
2023/05/19 10:34:56;;;;;;;14.50;4.93;;;;;;;25.63;38.22;99752.38;5081721;28;20039;-81
2023/05/19 10:37:32;;;;;;;8.93;5.22;;;;;;;26.11;38.40;99800.06;5086552;28;20102;-81
2023/05/19 10:39:57;;;;;;;6.95;4.57;;;;;;;26.13;40.16;99800.78;5083797;28;20408;-83
2023/05/19 10:42:47;;;;;;;10.43;5.82;;;;;;;25.57;41.59;99812.28;5077024;28;20034;-84
2023/05/19 10:45:17;;;;;;;7.63;4.00;;;;;;;23.82;44.42;99804.91;5075247;28;20123;-84
2023/05/19 10:47:43;;;;;;;7.57;3.50;;;;;;;23.46;49.91;99838.75;5078315;28;20025;-84
2023/05/19 10:50:10;;;;;;;8.77;3.45;;;;;;;21.96;54.28;99822.06;5076192;28;20043;-81
2023/05/19 10:52:39;;;;;;;9.95;3.67;;;;;;;21.29;56.61;99808.09;5074707;28;20074;-82
2023/05/19 10:55:16;;;;;;;8.00;4.45;;;;;;;20.50;62.49;99831.19;5083541;28;20066;-83
2023/05/19 10:57:55;;;;;;;12.85;4.45;;;;;;;20.06;61.74;99817.50;5078354;28;20024;-82
2023/05/19 11:00:30;;;;;;;9.05;3.40;;;;;;;19.58;65.76;99827.94;5086700;28;20528;-82
2023/05/19 11:03:22;;;;;;;6.63;2.93;;;;;;;19.58;67.41;99812.72;5069657;28;20055;-80
2023/05/19 11:05:50;;;;;;;6.85;4.18;;;;;;;19.22;68.07;99810.94;5086045;28;20122;-82
2023/05/19 11:08:31;;;;;;;7.60;4.03;;;;;;;19.41;68.53;99808.22;5087575;28;20073;-81
2023/05/19 11:11:15;;;;;;;7.15;4.43;;;;;;;19.95;67.26;99834.97;5066422;28;20044;-81
2023/05/19 11:13:45;;;;;;;5.05;3.50;;;;;;;19.73;68.05;99821.81;5084053;28;20028;-82
2023/05/19 11:16:11;;;;;;;7.45;4.15;;;;;;;19.63;68.62;99823.19;5065642;28;20135;-86
2023/05/19 11:18:37;;;;;;;7.53;4.57;;;;;;;19.91;69.03;99808.44;5078657;28;20049;-80
2023/05/19 11:21:02;;;;;;;8.23;3.85;;;;;;;20.57;74.51;99810.28;5071068;28;20401;-81
2023/05/19 11:23:32;;;;;;;8.30;4.53;;;;;;;20.99;69.97;99803.53;5070986;28;20025;-81
2023/05/19 11:26:01;;;;;;;6.10;3.67;;;;;;;21.43;68.86;99792.06;5071302;28;20033;-81
2023/05/19 11:28:28;;;;;;;7.82;4.18;;;;;;;21.61;66.24;99779.41;5070757;28;20032;-81
2023/05/19 11:30:56;;;;;;;9.35;5.32;;;;;;;22.21;63.27;99796.38;5070484;28;20024;-81
2023/05/19 11:33:25;;;;;;;8.00;4.18;;;;;;;22.58;63.56;99809.38;5070593;28;20028;-85
2023/05/19 11:35:52;;;;;;;12.07;3.85;;;;;;;22.52;63.17;99770.31;5084663;28;20040;-84